sensor_id;sensor_type;location;lat;lon;timestamp;P1;durP1;ratioP1;P2;durP2;ratioP2
46084;SDS011;31823;47.032;8.310;2024-02-26T00:00:31;5.55;;;1.95;;
46084;SDS011;31823;47.032;8.310;2024-02-26T00:02:57;2.25;;;2.03;;
46084;SDS011;31823;47.032;8.310;2024-02-26T00:05:22;2.50;;;2.13;;
46084;SDS011;31823;47.032;8.310;2024-02-26T00:07:48;3.17;;;2.10;;
46084;SDS011;31823;47.032;8.310;2024-02-26T00:10:14;3.38;;;2.33;;
46084;SDS011;31823;47.032;8.310;2024-02-26T00:12:39;3.10;;;2.50;;
46084;SDS011;31823;47.032;8.310;2024-02-26T00:15:08;3.80;;;2.63;;
46084;SDS011;31823;47.032;8.310;2024-02-26T00:17:34;2.85;;;2.15;;
46084;SDS011;31823;47.032;8.310;2024-02-26T00:20:01;2.88;;;2.40;;
46084;SDS011;31823;47.032;8.310;2024-02-26T00:22:33;4.10;;;2.03;;
46084;SDS011;31823;47.032;8.310;2024-02-26T00:24:59;2.58;;;2.22;;
46084;SDS011;31823;47.032;8.310;2024-02-26T00:27:25;3.30;;;2.83;;
46084;SDS011;31823;47.032;8.310;2024-02-26T00:29:50;3.20;;;2.50;;
46084;SDS011;31823;47.032;8.310;2024-02-26T00:32:16;5.57;;;2.30;;
46084;SDS011;31823;47.032;8.310;2024-02-26T00:34:41;3.25;;;2.78;;
46084;SDS011;31823;47.032;8.310;2024-02-26T00:37:07;5.10;;;2.65;;
46084;SDS011;31823;47.032;8.310;2024-02-26T00:39:32;3.70;;;2.30;;
46084;SDS011;31823;47.032;8.310;2024-02-26T00:41:58;2.95;;;2.03;;
46084;SDS011;31823;47.032;8.310;2024-02-26T00:44:24;2.78;;;2.35;;
46084;SDS011;31823;47.032;8.310;2024-02-26T00:46:49;4.90;;;2.33;;
46084;SDS011;31823;47.032;8.310;2024-02-26T00:49:15;4.05;;;2.25;;
46084;SDS011;31823;47.032;8.310;2024-02-26T00:51:41;2.88;;;2.00;;
46084;SDS011;31823;47.032;8.310;2024-02-26T00:54:06;2.97;;;2.15;;
46084;SDS011;31823;47.032;8.310;2024-02-26T00:56:32;2.78;;;1.95;;
46084;SDS011;31823;47.032;8.310;2024-02-26T00:58:58;2.75;;;2.15;;
46084;SDS011;31823;47.032;8.310;2024-02-26T01:01:23;2.90;;;2.20;;
46084;SDS011;31823;47.032;8.310;2024-02-26T01:03:49;2.95;;;2.33;;
46084;SDS011;31823;47.032;8.310;2024-02-26T01:06:14;2.80;;;2.58;;
46084;SDS011;31823;47.032;8.310;2024-02-26T01:08:40;3.15;;;2.45;;
46084;SDS011;31823;47.032;8.310;2024-02-26T01:11:06;4.43;;;2.30;;
46084;SDS011;31823;47.032;8.310;2024-02-26T01:13:32;3.05;;;2.20;;
46084;SDS011;31823;47.032;8.310;2024-02-26T01:15:58;2.42;;;2.10;;
46084;SDS011;31823;47.032;8.310;2024-02-26T01:18:25;2.70;;;2.38;;
46084;SDS011;31823;47.032;8.310;2024-02-26T01:20:51;2.50;;;2.10;;
46084;SDS011;31823;47.032;8.310;2024-02-26T01:23:19;2.72;;;2.15;;
46084;SDS011;31823;47.032;8.310;2024-02-26T01:25:45;2.63;;;2.35;;
46084;SDS011;31823;47.032;8.310;2024-02-26T01:28:10;3.15;;;2.25;;
46084;SDS011;31823;47.032;8.310;2024-02-26T01:30:36;2.38;;;2.03;;
46084;SDS011;31823;47.032;8.310;2024-02-26T01:33:02;3.22;;;2.00;;
46084;SDS011;31823;47.032;8.310;2024-02-26T01:35:28;2.40;;;2.05;;
46084;SDS011;31823;47.032;8.310;2024-02-26T01:37:54;4.15;;;2.38;;
46084;SDS011;31823;47.032;8.310;2024-02-26T01:40:20;3.25;;;2.13;;
46084;SDS011;31823;47.032;8.310;2024-02-26T01:42:46;3.40;;;2.03;;
46084;SDS011;31823;47.032;8.310;2024-02-26T01:45:16;2.13;;;1.88;;
46084;SDS011;31823;47.032;8.310;2024-02-26T01:47:51;3.10;;;2.28;;
46084;SDS011;31823;47.032;8.310;2024-02-26T01:50:18;3.30;;;1.90;;
46084;SDS011;31823;47.032;8.310;2024-02-26T01:52:45;2.72;;;1.88;;
46084;SDS011;31823;47.032;8.310;2024-02-26T01:55:12;3.97;;;2.65;;
46084;SDS011;31823;47.032;8.310;2024-02-26T01:57:45;3.88;;;2.28;;
46084;SDS011;31823;47.032;8.310;2024-02-26T02:00:12;3.50;;;2.50;;
46084;SDS011;31823;47.032;8.310;2024-02-26T02:02:41;4.78;;;2.70;;
46084;SDS011;31823;47.032;8.310;2024-02-26T02:05:08;6.45;;;2.42;;
46084;SDS011;31823;47.032;8.310;2024-02-26T02:07:36;3.20;;;2.25;;
46084;SDS011;31823;47.032;8.310;2024-02-26T02:10:02;4.50;;;2.25;;
46084;SDS011;31823;47.032;8.310;2024-02-26T02:12:30;4.43;;;2.90;;
46084;SDS011;31823;47.032;8.310;2024-02-26T02:14:58;2.95;;;2.30;;
46084;SDS011;31823;47.032;8.310;2024-02-26T02:17:23;3.17;;;2.40;;
46084;SDS011;31823;47.032;8.310;2024-02-26T02:19:49;2.97;;;2.20;;
46084;SDS011;31823;47.032;8.310;2024-02-26T02:22:14;2.88;;;2.20;;
46084;SDS011;31823;47.032;8.310;2024-02-26T02:24:40;3.83;;;2.45;;
46084;SDS011;31823;47.032;8.310;2024-02-26T02:27:06;2.40;;;2.20;;
46084;SDS011;31823;47.032;8.310;2024-02-26T02:29:31;3.20;;;2.25;;
46084;SDS011;31823;47.032;8.310;2024-02-26T02:31:57;2.78;;;2.00;;
46084;SDS011;31823;47.032;8.310;2024-02-26T02:34:23;2.75;;;2.15;;
46084;SDS011;31823;47.032;8.310;2024-02-26T02:36:50;2.60;;;2.30;;
46084;SDS011;31823;47.032;8.310;2024-02-26T02:39:17;4.95;;;2.22;;
46084;SDS011;31823;47.032;8.310;2024-02-26T02:41:42;4.88;;;2.30;;
46084;SDS011;31823;47.032;8.310;2024-02-26T02:44:08;1.90;;;1.70;;
46084;SDS011;31823;47.032;8.310;2024-02-26T02:46:34;5.22;;;1.90;;
46084;SDS011;31823;47.032;8.310;2024-02-26T02:49:00;5.30;;;2.30;;
46084;SDS011;31823;47.032;8.310;2024-02-26T02:51:26;2.92;;;2.28;;
46084;SDS011;31823;47.032;8.310;2024-02-26T02:53:51;3.88;;;2.80;;
46084;SDS011;31823;47.032;8.310;2024-02-26T02:56:17;2.17;;;1.98;;
46084;SDS011;31823;47.032;8.310;2024-02-26T02:58:43;3.17;;;2.35;;
46084;SDS011;31823;47.032;8.310;2024-02-26T03:01:08;2.00;;;1.70;;
46084;SDS011;31823;47.032;8.310;2024-02-26T03:03:34;2.85;;;2.00;;
46084;SDS011;31823;47.032;8.310;2024-02-26T03:06:01;3.50;;;2.55;;
46084;SDS011;31823;47.032;8.310;2024-02-26T03:08:27;4.03;;;2.65;;
46084;SDS011;31823;47.032;8.310;2024-02-26T03:10:53;7.28;;;3.30;;
46084;SDS011;31823;47.032;8.310;2024-02-26T03:13:19;3.42;;;2.53;;
46084;SDS011;31823;47.032;8.310;2024-02-26T03:15:45;3.10;;;2.55;;
46084;SDS011;31823;47.032;8.310;2024-02-26T03:18:10;3.60;;;2.75;;
46084;SDS011;31823;47.032;8.310;2024-02-26T03:20:36;3.15;;;2.20;;
46084;SDS011;31823;47.032;8.310;2024-02-26T03:23:02;4.25;;;2.78;;
46084;SDS011;31823;47.032;8.310;2024-02-26T03:25:28;2.47;;;2.20;;
46084;SDS011;31823;47.032;8.310;2024-02-26T03:27:53;3.53;;;2.47;;
46084;SDS011;31823;47.032;8.310;2024-02-26T03:30:19;2.75;;;2.42;;
46084;SDS011;31823;47.032;8.310;2024-02-26T03:32:44;2.63;;;2.10;;
46084;SDS011;31823;47.032;8.310;2024-02-26T03:35:11;3.55;;;2.45;;
46084;SDS011;31823;47.032;8.310;2024-02-26T03:37:37;3.65;;;2.40;;
46084;SDS011;31823;47.032;8.310;2024-02-26T03:40:03;4.47;;;2.42;;
46084;SDS011;31823;47.032;8.310;2024-02-26T03:42:29;2.70;;;2.00;;
46084;SDS011;31823;47.032;8.310;2024-02-26T03:44:55;3.40;;;2.42;;
46084;SDS011;31823;47.032;8.310;2024-02-26T03:47:20;2.85;;;2.38;;
46084;SDS011;31823;47.032;8.310;2024-02-26T03:49:46;5.18;;;2.38;;
46084;SDS011;31823;47.032;8.310;2024-02-26T03:52:11;2.55;;;1.80;;
46084;SDS011;31823;47.032;8.310;2024-02-26T03:54:37;1.85;;;1.70;;
46084;SDS011;31823;47.032;8.310;2024-02-26T03:57:03;3.03;;;2.40;;
46084;SDS011;31823;47.032;8.310;2024-02-26T03:59:29;3.13;;;1.85;;
46084;SDS011;31823;47.032;8.310;2024-02-26T04:01:54;3.42;;;2.33;;
46084;SDS011;31823;47.032;8.310;2024-02-26T04:04:20;7.18;;;3.63;;
46084;SDS011;31823;47.032;8.310;2024-02-26T04:06:46;3.35;;;2.42;;
46084;SDS011;31823;47.032;8.310;2024-02-26T04:09:14;2.75;;;2.42;;
46084;SDS011;31823;47.032;8.310;2024-02-26T04:11:40;3.90;;;2.50;;
46084;SDS011;31823;47.032;8.310;2024-02-26T04:14:08;2.28;;;1.98;;
46084;SDS011;31823;47.032;8.310;2024-02-26T04:16:34;4.75;;;2.67;;
46084;SDS011;31823;47.032;8.310;2024-02-26T04:19:00;1.75;;;1.65;;
46084;SDS011;31823;47.032;8.310;2024-02-26T04:21:26;2.53;;;2.33;;
46084;SDS011;31823;47.032;8.310;2024-02-26T04:23:52;2.72;;;2.42;;
46084;SDS011;31823;47.032;8.310;2024-02-26T04:26:20;3.10;;;2.22;;
46084;SDS011;31823;47.032;8.310;2024-02-26T04:28:46;2.15;;;1.83;;
46084;SDS011;31823;47.032;8.310;2024-02-26T04:31:12;3.17;;;2.50;;
46084;SDS011;31823;47.032;8.310;2024-02-26T04:33:38;4.03;;;2.72;;
46084;SDS011;31823;47.032;8.310;2024-02-26T04:36:03;2.85;;;2.38;;
46084;SDS011;31823;47.032;8.310;2024-02-26T04:38:29;2.97;;;2.47;;
46084;SDS011;31823;47.032;8.310;2024-02-26T04:40:55;4.25;;;2.55;;
46084;SDS011;31823;47.032;8.310;2024-02-26T04:43:20;6.03;;;2.28;;
46084;SDS011;31823;47.032;8.310;2024-02-26T04:45:46;4.45;;;2.80;;
46084;SDS011;31823;47.032;8.310;2024-02-26T04:48:11;3.83;;;2.85;;
46084;SDS011;31823;47.032;8.310;2024-02-26T04:50:37;3.35;;;2.90;;
46084;SDS011;31823;47.032;8.310;2024-02-26T04:53:03;3.60;;;3.15;;
46084;SDS011;31823;47.032;8.310;2024-02-26T04:55:28;4.90;;;2.25;;
46084;SDS011;31823;47.032;8.310;2024-02-26T04:57:54;2.42;;;1.90;;
46084;SDS011;31823;47.032;8.310;2024-02-26T05:00:19;2.78;;;2.40;;
46084;SDS011;31823;47.032;8.310;2024-02-26T05:02:45;3.00;;;2.17;;
46084;SDS011;31823;47.032;8.310;2024-02-26T05:05:11;3.17;;;2.45;;
46084;SDS011;31823;47.032;8.310;2024-02-26T05:07:40;3.20;;;2.55;;
46084;SDS011;31823;47.032;8.310;2024-02-26T05:10:07;5.18;;;3.33;;
46084;SDS011;31823;47.032;8.310;2024-02-26T05:12:33;2.53;;;2.20;;
46084;SDS011;31823;47.032;8.310;2024-02-26T05:15:00;3.47;;;2.22;;
46084;SDS011;31823;47.032;8.310;2024-02-26T05:17:26;2.50;;;2.30;;
46084;SDS011;31823;47.032;8.310;2024-02-26T05:19:52;3.72;;;2.33;;
46084;SDS011;31823;47.032;8.310;2024-02-26T05:22:18;2.08;;;1.95;;
46084;SDS011;31823;47.032;8.310;2024-02-26T05:24:43;4.20;;;2.53;;
46084;SDS011;31823;47.032;8.310;2024-02-26T05:27:09;3.45;;;2.53;;
46084;SDS011;31823;47.032;8.310;2024-02-26T05:29:35;5.25;;;2.08;;
46084;SDS011;31823;47.032;8.310;2024-02-26T05:32:01;3.38;;;2.17;;
46084;SDS011;31823;47.032;8.310;2024-02-26T05:34:27;8.57;;;2.05;;
46084;SDS011;31823;47.032;8.310;2024-02-26T05:36:52;1.98;;;1.60;;
46084;SDS011;31823;47.032;8.310;2024-02-26T05:39:18;4.63;;;2.35;;
46084;SDS011;31823;47.032;8.310;2024-02-26T05:41:44;3.55;;;2.53;;
46084;SDS011;31823;47.032;8.310;2024-02-26T05:44:10;2.28;;;1.92;;
46084;SDS011;31823;47.032;8.310;2024-02-26T05:46:36;2.05;;;1.85;;
46084;SDS011;31823;47.032;8.310;2024-02-26T05:49:02;2.38;;;1.80;;
46084;SDS011;31823;47.032;8.310;2024-02-26T05:51:28;4.75;;;2.05;;
46084;SDS011;31823;47.032;8.310;2024-02-26T05:53:53;2.58;;;2.13;;
46084;SDS011;31823;47.032;8.310;2024-02-26T05:56:23;4.43;;;1.75;;
46084;SDS011;31823;47.032;8.310;2024-02-26T05:58:48;5.47;;;2.13;;
46084;SDS011;31823;47.032;8.310;2024-02-26T06:01:15;3.22;;;1.88;;
46084;SDS011;31823;47.032;8.310;2024-02-26T06:03:42;3.58;;;2.17;;
46084;SDS011;31823;47.032;8.310;2024-02-26T06:06:08;5.88;;;2.38;;
46084;SDS011;31823;47.032;8.310;2024-02-26T06:08:33;2.88;;;2.05;;
46084;SDS011;31823;47.032;8.310;2024-02-26T06:10:59;2.65;;;2.10;;
46084;SDS011;31823;47.032;8.310;2024-02-26T06:13:24;4.47;;;2.20;;
46084;SDS011;31823;47.032;8.310;2024-02-26T06:15:50;2.75;;;2.03;;
46084;SDS011;31823;47.032;8.310;2024-02-26T06:18:15;7.28;;;2.70;;
46084;SDS011;31823;47.032;8.310;2024-02-26T06:20:41;3.83;;;2.03;;
46084;SDS011;31823;47.032;8.310;2024-02-26T06:23:07;2.35;;;2.15;;
46084;SDS011;31823;47.032;8.310;2024-02-26T06:25:32;2.83;;;2.15;;
46084;SDS011;31823;47.032;8.310;2024-02-26T06:27:58;3.17;;;2.15;;
46084;SDS011;31823;47.032;8.310;2024-02-26T06:30:23;4.60;;;2.33;;
46084;SDS011;31823;47.032;8.310;2024-02-26T06:32:49;4.20;;;2.20;;
46084;SDS011;31823;47.032;8.310;2024-02-26T06:35:14;3.05;;;2.42;;
46084;SDS011;31823;47.032;8.310;2024-02-26T06:37:40;2.83;;;2.13;;
46084;SDS011;31823;47.032;8.310;2024-02-26T06:40:06;3.97;;;2.20;;
46084;SDS011;31823;47.032;8.310;2024-02-26T06:42:32;3.08;;;1.95;;
46084;SDS011;31823;47.032;8.310;2024-02-26T06:44:58;4.70;;;2.90;;
46084;SDS011;31823;47.032;8.310;2024-02-26T06:47:23;6.15;;;3.60;;
46084;SDS011;31823;47.032;8.310;2024-02-26T06:49:49;4.18;;;3.08;;
46084;SDS011;31823;47.032;8.310;2024-02-26T06:52:14;3.60;;;2.75;;
46084;SDS011;31823;47.032;8.310;2024-02-26T06:54:40;3.22;;;2.63;;
46084;SDS011;31823;47.032;8.310;2024-02-26T06:57:06;3.10;;;2.60;;
46084;SDS011;31823;47.032;8.310;2024-02-26T06:59:32;2.85;;;2.30;;
46084;SDS011;31823;47.032;8.310;2024-02-26T07:01:57;3.78;;;2.45;;
46084;SDS011;31823;47.032;8.310;2024-02-26T07:04:23;3.35;;;2.58;;
46084;SDS011;31823;47.032;8.310;2024-02-26T07:06:48;2.65;;;2.40;;
46084;SDS011;31823;47.032;8.310;2024-02-26T07:09:14;3.83;;;2.58;;
46084;SDS011;31823;47.032;8.310;2024-02-26T07:11:41;3.10;;;2.42;;
46084;SDS011;31823;47.032;8.310;2024-02-26T07:14:08;5.43;;;2.88;;
46084;SDS011;31823;47.032;8.310;2024-02-26T07:16:35;6.63;;;3.40;;
46084;SDS011;31823;47.032;8.310;2024-02-26T07:19:00;5.55;;;2.40;;
46084;SDS011;31823;47.032;8.310;2024-02-26T07:21:26;2.92;;;2.30;;
46084;SDS011;31823;47.032;8.310;2024-02-26T07:23:51;3.05;;;2.60;;
46084;SDS011;31823;47.032;8.310;2024-02-26T07:26:17;2.42;;;2.20;;
46084;SDS011;31823;47.032;8.310;2024-02-26T07:28:44;4.22;;;2.70;;
46084;SDS011;31823;47.032;8.310;2024-02-26T07:31:10;7.32;;;3.38;;
46084;SDS011;31823;47.032;8.310;2024-02-26T07:33:35;6.55;;;3.70;;
46084;SDS011;31823;47.032;8.310;2024-02-26T07:36:01;4.72;;;3.17;;
46084;SDS011;31823;47.032;8.310;2024-02-26T07:38:27;5.43;;;3.15;;
46084;SDS011;31823;47.032;8.310;2024-02-26T07:40:52;2.30;;;2.10;;
46084;SDS011;31823;47.032;8.310;2024-02-26T07:43:18;3.10;;;2.60;;
46084;SDS011;31823;47.032;8.310;2024-02-26T07:45:44;3.03;;;2.53;;
46084;SDS011;31823;47.032;8.310;2024-02-26T07:48:09;2.85;;;2.60;;
46084;SDS011;31823;47.032;8.310;2024-02-26T07:50:35;5.15;;;3.10;;
46084;SDS011;31823;47.032;8.310;2024-02-26T07:53:01;4.70;;;3.15;;
46084;SDS011;31823;47.032;8.310;2024-02-26T07:55:26;4.60;;;2.97;;
46084;SDS011;31823;47.032;8.310;2024-02-26T07:57:52;4.97;;;3.30;;
46084;SDS011;31823;47.032;8.310;2024-02-26T08:00:18;4.10;;;3.38;;
46084;SDS011;31823;47.032;8.310;2024-02-26T08:02:44;6.30;;;3.95;;
46084;SDS011;31823;47.032;8.310;2024-02-26T08:05:09;6.50;;;4.07;;
46084;SDS011;31823;47.032;8.310;2024-02-26T08:07:35;4.85;;;3.50;;
46084;SDS011;31823;47.032;8.310;2024-02-26T08:10:01;4.97;;;3.90;;
46084;SDS011;31823;47.032;8.310;2024-02-26T08:12:27;5.43;;;3.75;;
46084;SDS011;31823;47.032;8.310;2024-02-26T08:14:52;5.72;;;3.30;;
46084;SDS011;31823;47.032;8.310;2024-02-26T08:17:18;3.63;;;3.17;;
46084;SDS011;31823;47.032;8.310;2024-02-26T08:19:43;4.80;;;2.85;;
46084;SDS011;31823;47.032;8.310;2024-02-26T08:22:09;4.00;;;2.67;;
46084;SDS011;31823;47.032;8.310;2024-02-26T08:24:40;5.25;;;3.03;;
46084;SDS011;31823;47.032;8.310;2024-02-26T08:27:07;4.97;;;3.25;;
46084;SDS011;31823;47.032;8.310;2024-02-26T08:29:32;3.20;;;2.78;;
46084;SDS011;31823;47.032;8.310;2024-02-26T08:31:58;3.65;;;2.67;;
46084;SDS011;31823;47.032;8.310;2024-02-26T08:34:24;4.15;;;2.85;;
46084;SDS011;31823;47.032;8.310;2024-02-26T08:36:50;10.60;;;3.38;;
46084;SDS011;31823;47.032;8.310;2024-02-26T08:39:16;10.77;;;3.58;;
46084;SDS011;31823;47.032;8.310;2024-02-26T08:41:42;14.40;;;3.38;;
46084;SDS011;31823;47.032;8.310;2024-02-26T08:44:08;6.05;;;2.78;;
46084;SDS011;31823;47.032;8.310;2024-02-26T08:46:34;4.80;;;2.78;;
46084;SDS011;31823;47.032;8.310;2024-02-26T08:49:00;4.88;;;2.47;;
46084;SDS011;31823;47.032;8.310;2024-02-26T08:51:25;4.22;;;3.00;;
46084;SDS011;31823;47.032;8.310;2024-02-26T08:53:51;3.38;;;2.38;;
46084;SDS011;31823;47.032;8.310;2024-02-26T08:56:17;3.45;;;2.25;;
46084;SDS011;31823;47.032;8.310;2024-02-26T08:58:43;2.50;;;2.30;;
46084;SDS011;31823;47.032;8.310;2024-02-26T09:01:08;2.38;;;2.17;;
46084;SDS011;31823;47.032;8.310;2024-02-26T09:03:34;3.05;;;2.22;;
46084;SDS011;31823;47.032;8.310;2024-02-26T09:06:00;3.05;;;2.50;;
46084;SDS011;31823;47.032;8.310;2024-02-26T09:08:25;3.33;;;2.70;;
46084;SDS011;31823;47.032;8.310;2024-02-26T09:10:51;3.95;;;3.05;;
46084;SDS011;31823;47.032;8.310;2024-02-26T09:13:16;3.13;;;2.55;;
46084;SDS011;31823;47.032;8.310;2024-02-26T09:15:43;3.13;;;2.50;;
46084;SDS011;31823;47.032;8.310;2024-02-26T09:18:09;3.17;;;2.45;;
46084;SDS011;31823;47.032;8.310;2024-02-26T09:20:35;4.80;;;2.65;;
46084;SDS011;31823;47.032;8.310;2024-02-26T09:23:00;4.40;;;2.58;;
46084;SDS011;31823;47.032;8.310;2024-02-26T09:25:26;3.00;;;2.70;;
46084;SDS011;31823;47.032;8.310;2024-02-26T09:27:52;4.70;;;2.63;;
46084;SDS011;31823;47.032;8.310;2024-02-26T09:30:18;3.00;;;2.70;;
46084;SDS011;31823;47.032;8.310;2024-02-26T09:32:45;3.90;;;3.03;;
46084;SDS011;31823;47.032;8.310;2024-02-26T09:35:13;5.55;;;2.42;;
46084;SDS011;31823;47.032;8.310;2024-02-26T09:37:38;3.50;;;2.40;;
46084;SDS011;31823;47.032;8.310;2024-02-26T09:40:04;2.63;;;2.20;;
46084;SDS011;31823;47.032;8.310;2024-02-26T09:42:31;2.67;;;2.10;;
46084;SDS011;31823;47.032;8.310;2024-02-26T09:44:59;2.58;;;2.28;;
46084;SDS011;31823;47.032;8.310;2024-02-26T09:47:26;2.78;;;2.10;;
46084;SDS011;31823;47.032;8.310;2024-02-26T09:49:55;3.75;;;2.40;;
46084;SDS011;31823;47.032;8.310;2024-02-26T09:52:21;3.55;;;2.50;;
46084;SDS011;31823;47.032;8.310;2024-02-26T09:54:48;3.10;;;2.80;;
46084;SDS011;31823;47.032;8.310;2024-02-26T09:57:15;2.38;;;2.17;;
46084;SDS011;31823;47.032;8.310;2024-02-26T09:59:42;3.40;;;2.40;;
46084;SDS011;31823;47.032;8.310;2024-02-26T10:02:14;3.80;;;2.33;;
46084;SDS011;31823;47.032;8.310;2024-02-26T10:04:40;3.33;;;2.25;;
46084;SDS011;31823;47.032;8.310;2024-02-26T10:07:09;3.17;;;2.88;;
46084;SDS011;31823;47.032;8.310;2024-02-26T10:09:36;2.20;;;2.00;;
46084;SDS011;31823;47.032;8.310;2024-02-26T10:12:03;4.20;;;2.55;;
46084;SDS011;31823;47.032;8.310;2024-02-26T10:14:29;3.17;;;2.65;;
46084;SDS011;31823;47.032;8.310;2024-02-26T10:16:55;2.78;;;2.30;;
46084;SDS011;31823;47.032;8.310;2024-02-26T10:19:25;2.40;;;2.00;;
46084;SDS011;31823;47.032;8.310;2024-02-26T10:21:58;3.35;;;2.40;;
46084;SDS011;31823;47.032;8.310;2024-02-26T10:24:25;3.05;;;2.00;;
46084;SDS011;31823;47.032;8.310;2024-02-26T10:26:52;4.10;;;2.60;;
46084;SDS011;31823;47.032;8.310;2024-02-26T10:29:19;4.38;;;2.83;;
46084;SDS011;31823;47.032;8.310;2024-02-26T10:31:45;3.72;;;2.35;;
46084;SDS011;31823;47.032;8.310;2024-02-26T10:34:11;2.25;;;2.05;;
46084;SDS011;31823;47.032;8.310;2024-02-26T10:36:37;2.70;;;2.22;;
46084;SDS011;31823;47.032;8.310;2024-02-26T10:39:06;2.55;;;2.05;;
46084;SDS011;31823;47.032;8.310;2024-02-26T10:41:35;2.25;;;2.05;;
46084;SDS011;31823;47.032;8.310;2024-02-26T10:44:00;4.03;;;2.45;;
46084;SDS011;31823;47.032;8.310;2024-02-26T10:46:26;2.50;;;2.20;;
46084;SDS011;31823;47.032;8.310;2024-02-26T10:48:53;3.08;;;2.40;;
46084;SDS011;31823;47.032;8.310;2024-02-26T10:51:26;2.65;;;2.45;;
46084;SDS011;31823;47.032;8.310;2024-02-26T10:53:55;3.00;;;2.20;;
46084;SDS011;31823;47.032;8.310;2024-02-26T10:56:26;2.40;;;2.20;;
46084;SDS011;31823;47.032;8.310;2024-02-26T10:58:58;2.90;;;2.60;;
46084;SDS011;31823;47.032;8.310;2024-02-26T11:01:25;3.08;;;2.70;;
46084;SDS011;31823;47.032;8.310;2024-02-26T11:03:54;4.65;;;2.83;;
46084;SDS011;31823;47.032;8.310;2024-02-26T11:06:21;4.13;;;2.47;;
46084;SDS011;31823;47.032;8.310;2024-02-26T11:08:50;3.40;;;2.60;;
46084;SDS011;31823;47.032;8.310;2024-02-26T11:11:16;2.47;;;2.08;;
46084;SDS011;31823;47.032;8.310;2024-02-26T11:13:43;2.45;;;2.25;;
46084;SDS011;31823;47.032;8.310;2024-02-26T11:16:14;2.13;;;1.92;;
46084;SDS011;31823;47.032;8.310;2024-02-26T11:18:45;3.03;;;2.13;;
46084;SDS011;31823;47.032;8.310;2024-02-26T11:21:17;4.43;;;2.80;;
46084;SDS011;31823;47.032;8.310;2024-02-26T11:23:47;8.25;;;2.55;;
46084;SDS011;31823;47.032;8.310;2024-02-26T11:26:13;5.88;;;3.28;;
46084;SDS011;31823;47.032;8.310;2024-02-26T11:28:42;5.93;;;2.60;;
46084;SDS011;31823;47.032;8.310;2024-02-26T11:31:08;4.45;;;3.22;;
46084;SDS011;31823;47.032;8.310;2024-02-26T11:33:35;4.03;;;2.75;;
46084;SDS011;31823;47.032;8.310;2024-02-26T11:36:08;4.53;;;2.95;;
46084;SDS011;31823;47.032;8.310;2024-02-26T11:38:35;5.40;;;3.25;;
46084;SDS011;31823;47.032;8.310;2024-02-26T11:41:01;3.63;;;3.25;;
46084;SDS011;31823;47.032;8.310;2024-02-26T11:46:25;3.85;;;3.33;;
46084;SDS011;31823;47.032;8.310;2024-02-26T11:51:51;5.07;;;3.30;;
46084;SDS011;31823;47.032;8.310;2024-02-26T11:57:59;4.70;;;2.53;;
46084;SDS011;31823;47.032;8.310;2024-02-26T12:00:11;6.13;;;3.20;;
46084;SDS011;31823;47.032;8.310;2024-02-26T12:02:51;3.00;;;2.58;;
46084;SDS011;31823;47.032;8.310;2024-02-26T12:05:23;5.10;;;3.53;;
46084;SDS011;31823;47.032;8.310;2024-02-26T12:07:52;3.60;;;3.10;;
46084;SDS011;31823;47.032;8.310;2024-02-26T12:10:30;6.53;;;3.70;;
46084;SDS011;31823;47.032;8.310;2024-02-26T12:13:02;3.90;;;2.78;;
46084;SDS011;31823;47.032;8.310;2024-02-26T12:15:33;3.90;;;2.83;;
46084;SDS011;31823;47.032;8.310;2024-02-26T12:18:03;4.05;;;3.13;;
46084;SDS011;31823;47.032;8.310;2024-02-26T12:20:30;4.22;;;2.95;;
46084;SDS011;31823;47.032;8.310;2024-02-26T12:22:56;4.55;;;3.03;;
46084;SDS011;31823;47.032;8.310;2024-02-26T12:25:26;3.35;;;2.88;;
46084;SDS011;31823;47.032;8.310;2024-02-26T12:27:54;3.42;;;2.60;;
46084;SDS011;31823;47.032;8.310;2024-02-26T12:30:20;3.47;;;2.95;;
46084;SDS011;31823;47.032;8.310;2024-02-26T12:32:47;3.83;;;2.50;;
46084;SDS011;31823;47.032;8.310;2024-02-26T12:35:14;4.57;;;2.83;;
46084;SDS011;31823;47.032;8.310;2024-02-26T12:37:41;4.63;;;2.92;;
46084;SDS011;31823;47.032;8.310;2024-02-26T12:40:10;3.85;;;2.92;;
46084;SDS011;31823;47.032;8.310;2024-02-26T12:42:38;4.25;;;2.53;;
46084;SDS011;31823;47.032;8.310;2024-02-26T12:45:05;3.03;;;2.72;;
46084;SDS011;31823;47.032;8.310;2024-02-26T12:47:37;3.45;;;2.67;;
46084;SDS011;31823;47.032;8.310;2024-02-26T12:50:07;3.65;;;2.67;;
46084;SDS011;31823;47.032;8.310;2024-02-26T12:52:34;3.65;;;3.03;;
46084;SDS011;31823;47.032;8.310;2024-02-26T12:55:01;4.47;;;3.25;;
46084;SDS011;31823;47.032;8.310;2024-02-26T12:57:28;3.28;;;2.65;;
46084;SDS011;31823;47.032;8.310;2024-02-26T12:59:56;3.67;;;2.78;;
46084;SDS011;31823;47.032;8.310;2024-02-26T13:02:23;3.30;;;2.78;;
46084;SDS011;31823;47.032;8.310;2024-02-26T13:04:49;3.88;;;2.97;;
46084;SDS011;31823;47.032;8.310;2024-02-26T13:07:15;2.80;;;2.50;;
46084;SDS011;31823;47.032;8.310;2024-02-26T13:09:40;5.32;;;2.80;;
46084;SDS011;31823;47.032;8.310;2024-02-26T13:12:07;4.88;;;3.10;;
46084;SDS011;31823;47.032;8.310;2024-02-26T13:14:33;5.57;;;3.22;;
46084;SDS011;31823;47.032;8.310;2024-02-26T13:16:59;4.15;;;2.85;;
46084;SDS011;31823;47.032;8.310;2024-02-26T13:19:26;5.38;;;3.10;;
46084;SDS011;31823;47.032;8.310;2024-02-26T13:21:53;4.88;;;3.50;;
46084;SDS011;31823;47.032;8.310;2024-02-26T13:24:19;6.03;;;3.42;;
46084;SDS011;31823;47.032;8.310;2024-02-26T13:26:45;4.35;;;3.13;;
46084;SDS011;31823;47.032;8.310;2024-02-26T13:29:18;3.63;;;2.70;;
46084;SDS011;31823;47.032;8.310;2024-02-26T13:31:43;4.32;;;2.97;;
46084;SDS011;31823;47.032;8.310;2024-02-26T13:34:09;3.17;;;2.67;;
46084;SDS011;31823;47.032;8.310;2024-02-26T13:36:35;3.08;;;2.67;;
46084;SDS011;31823;47.032;8.310;2024-02-26T13:39:00;6.28;;;3.22;;
46084;SDS011;31823;47.032;8.310;2024-02-26T13:41:26;5.40;;;3.70;;
46084;SDS011;31823;47.032;8.310;2024-02-26T13:43:52;5.00;;;3.03;;
46084;SDS011;31823;47.032;8.310;2024-02-26T13:46:18;4.18;;;2.55;;
46084;SDS011;31823;47.032;8.310;2024-02-26T13:48:43;2.58;;;2.38;;
46084;SDS011;31823;47.032;8.310;2024-02-26T13:51:09;3.85;;;2.58;;
46084;SDS011;31823;47.032;8.310;2024-02-26T13:53:35;3.13;;;2.38;;
46084;SDS011;31823;47.032;8.310;2024-02-26T13:56:00;5.20;;;2.80;;
46084;SDS011;31823;47.032;8.310;2024-02-26T13:58:27;3.70;;;2.88;;
46084;SDS011;31823;47.032;8.310;2024-02-26T14:00:53;3.33;;;2.50;;
46084;SDS011;31823;47.032;8.310;2024-02-26T14:03:22;2.85;;;2.53;;
46084;SDS011;31823;47.032;8.310;2024-02-26T14:05:47;4.07;;;2.75;;
46084;SDS011;31823;47.032;8.310;2024-02-26T14:08:13;3.97;;;2.45;;
46084;SDS011;31823;47.032;8.310;2024-02-26T14:10:40;4.30;;;3.13;;
46084;SDS011;31823;47.032;8.310;2024-02-26T14:13:05;3.70;;;2.58;;
46084;SDS011;31823;47.032;8.310;2024-02-26T14:15:31;3.85;;;2.95;;
46084;SDS011;31823;47.032;8.310;2024-02-26T14:17:57;5.68;;;4.32;;
46084;SDS011;31823;47.032;8.310;2024-02-26T14:20:23;4.45;;;3.08;;
46084;SDS011;31823;47.032;8.310;2024-02-26T14:22:50;5.20;;;3.08;;
46084;SDS011;31823;47.032;8.310;2024-02-26T14:25:19;4.88;;;2.90;;
46084;SDS011;31823;47.032;8.310;2024-02-26T14:27:47;3.50;;;2.67;;
46084;SDS011;31823;47.032;8.310;2024-02-26T14:30:13;3.38;;;3.08;;
46084;SDS011;31823;47.032;8.310;2024-02-26T14:32:39;4.25;;;2.90;;
46084;SDS011;31823;47.032;8.310;2024-02-26T14:35:06;4.45;;;2.83;;
46084;SDS011;31823;47.032;8.310;2024-02-26T14:37:32;6.05;;;3.10;;
46084;SDS011;31823;47.032;8.310;2024-02-26T14:39:58;4.95;;;2.75;;
46084;SDS011;31823;47.032;8.310;2024-02-26T14:42:23;3.97;;;2.78;;
46084;SDS011;31823;47.032;8.310;2024-02-26T14:44:49;4.15;;;2.78;;
46084;SDS011;31823;47.032;8.310;2024-02-26T14:47:15;2.90;;;2.42;;
46084;SDS011;31823;47.032;8.310;2024-02-26T14:49:41;4.30;;;3.08;;
46084;SDS011;31823;47.032;8.310;2024-02-26T14:52:07;3.60;;;2.78;;